createdAt,value
2019-04-14T00:04:42.498Z,82.10
2019-04-14T00:09:58.438Z,81.90
2019-04-14T00:15:24.476Z,81.90
2019-04-14T00:20:29.798Z,81.90
2019-04-14T00:25:45.433Z,81.90
2019-04-14T00:31:00.453Z,82.00
2019-04-14T00:36:26.098Z,82.10
2019-04-14T00:41:55.181Z,82.20
2019-04-14T00:47:15.721Z,82.30
2019-04-14T00:52:30.363Z,82.40
2019-04-14T00:57:46.061Z,82.30
2019-04-14T01:03:02.746Z,82.30
2019-04-14T01:08:18.527Z,82.40
2019-04-14T01:13:35.319Z,82.50
2019-04-14T01:18:49.753Z,82.70
2019-04-14T01:24:05.235Z,82.60
2019-04-14T01:29:20.960Z,82.70
2019-04-14T01:34:36.904Z,82.80
2019-04-14T01:39:52.505Z,82.80
2019-04-14T01:45:10.002Z,82.70
2019-04-14T01:50:34.475Z,82.80
2019-04-14T01:56:10.149Z,82.70
2019-04-14T02:01:30.263Z,83.50
2019-04-14T02:06:44.652Z,83.00
2019-04-14T02:11:59.498Z,82.80
2019-04-14T02:17:15.274Z,82.90
2019-04-14T02:22:31.201Z,82.90
2019-04-14T02:27:47.257Z,83.60
2019-04-14T02:33:32.172Z,82.90
2019-04-14T02:38:48.963Z,82.80
2019-04-14T02:44:05.008Z,82.80
2019-04-14T02:49:11.129Z,82.80
2019-04-14T02:54:55.272Z,82.90
2019-04-14T02:59:49.925Z,83.10
2019-04-14T03:21:13.662Z,83.20
2019-04-14T03:26:35.604Z,83.50
2019-04-14T03:37:16.280Z,83.60
2019-04-14T03:42:29.386Z,83.70
2019-04-14T03:47:31.028Z,83.70
2019-04-14T03:53:06.561Z,83.80
2019-04-14T03:57:45.492Z,83.90
2019-04-14T04:03:02.093Z,84.00
2019-04-14T04:08:18.016Z,84.00
2019-04-14T04:13:34.457Z,84.10
2019-04-14T04:18:57.876Z,84.30
2019-04-14T04:24:19.554Z,84.50
2019-04-14T04:29:46.851Z,84.60
2019-04-14T04:35:26.563Z,84.80
2019-04-14T04:40:41.883Z,84.80
2019-04-14T04:45:56.330Z,84.90
2019-04-14T04:51:11.714Z,84.90
2019-04-14T04:56:27.540Z,85.00
2019-04-14T05:01:42.924Z,85.00
2019-04-14T05:06:59.395Z,85.10
2019-04-14T05:12:48.059Z,85.20
2019-04-14T05:18:02.751Z,85.40
2019-04-14T05:23:17.609Z,85.60
2019-04-14T05:28:33.385Z,85.70
2019-04-14T05:33:48.945Z,86.60
2019-04-14T05:39:04.594Z,86.20
2019-04-14T05:44:20.679Z,86.40
2019-04-14T05:49:44.301Z,86.70
2019-04-14T05:54:51.882Z,86.90
2019-04-14T06:00:14.524Z,86.80
2019-04-14T06:05:29.565Z,87.00
2019-04-14T06:10:43.695Z,87.10
2019-04-14T06:15:58.055Z,87.30
2019-04-14T06:21:13.689Z,87.40
2019-04-14T06:26:29.416Z,87.60
2019-04-14T06:32:18.628Z,87.80
2019-04-14T06:37:40.269Z,87.90
2019-04-14T06:42:54.494Z,88.10
2019-04-14T06:48:09.217Z,88.20
2019-04-14T06:53:23.857Z,88.20
2019-04-14T06:58:38.694Z,88.30
2019-04-14T07:03:56.053Z,88.60
2019-04-14T07:09:10.694Z,88.70
2019-04-14T07:14:25.278Z,89.00
2019-04-14T07:19:40.025Z,89.30
2019-04-14T07:24:54.489Z,89.40
2019-04-14T07:30:18.423Z,89.90
2019-04-14T07:35:55.082Z,90.00
2019-04-14T07:41:22.932Z,90.00
2019-04-14T07:46:44.031Z,90.10
2019-04-14T07:52:18.240Z,90.10
2019-04-14T07:57:50.789Z,90.60
2019-04-14T08:03:24.114Z,90.30
2019-04-14T08:08:39.355Z,90.40
2019-04-14T08:13:53.896Z,90.30
2019-04-14T08:19:08.559Z,90.40
2019-04-14T08:24:22.826Z,90.50
2019-04-14T08:29:37.336Z,90.50
2019-04-14T08:34:51.966Z,90.50
2019-04-14T08:40:07.940Z,90.50
2019-04-14T08:45:40.798Z,90.50
2019-04-14T08:51:17.247Z,90.60
2019-04-14T08:56:43.799Z,90.70
2019-04-14T09:02:16.709Z,90.80
2019-04-14T09:07:39.119Z,90.80
2019-04-14T09:12:54.936Z,91.10
2019-04-14T09:18:09.279Z,90.90
2019-04-14T09:24:01.851Z,91.20
2019-04-14T09:41:50.692Z,91.10
2019-04-14T09:47:05.416Z,91.00
2019-04-14T09:52:30.293Z,90.90
2019-04-14T09:57:52.900Z,90.90
2019-04-14T10:03:07.553Z,90.80
2019-04-14T10:08:22.381Z,90.40
2019-04-14T10:13:36.883Z,91.40
2019-04-14T10:18:51.501Z,91.70
2019-04-14T10:24:06.273Z,91.80
2019-04-14T10:29:20.931Z,91.90
2019-04-14T10:34:35.942Z,91.50
2019-04-14T10:39:53.374Z,91.40
2019-04-14T10:45:10.264Z,91.10
2019-04-14T10:50:30.616Z,90.80
2019-04-14T10:55:40.723Z,90.60
2019-04-14T11:00:55.239Z,90.30
2019-04-14T11:06:17.630Z,90.30
2019-04-14T11:11:32.145Z,90.00
2019-04-14T11:16:46.839Z,90.00
2019-04-14T11:22:01.368Z,89.90
2019-04-14T11:27:16.073Z,89.60
2019-04-14T11:32:50.682Z,89.60
2019-04-14T11:38:31.349Z,89.10
2019-04-14T11:43:45.996Z,88.70
2019-04-14T11:49:00.937Z,88.60
2019-04-14T11:54:15.719Z,88.30
2019-04-14T11:59:38.240Z,88.20
2019-04-14T12:04:56.663Z,87.90
2019-04-14T12:10:21.000Z,87.70
2019-04-14T12:15:35.914Z,87.40
2019-04-14T12:20:50.446Z,87.10
2019-04-14T12:26:05.982Z,86.70
2019-04-14T12:31:21.858Z,86.40
2019-04-14T12:36:36.497Z,86.10
2019-04-14T12:42:03.720Z,85.60
2019-04-14T12:47:49.631Z,85.20
2019-04-14T12:53:04.270Z,84.70
2019-04-14T12:58:19.973Z,84.00
2019-04-14T13:03:36.847Z,83.70
2019-04-14T13:08:51.798Z,83.40
2019-04-14T13:14:07.990Z,83.20
2019-04-14T13:19:23.877Z,82.60
2019-04-14T13:24:38.871Z,81.10
2019-04-14T13:29:53.606Z,79.90
2019-04-14T13:35:09.405Z,79.90
2019-04-14T13:40:23.931Z,79.60
2019-04-14T13:45:38.507Z,79.50
2019-04-14T13:50:53.234Z,79.30
2019-04-14T13:56:07.933Z,79.10
2019-04-14T14:01:22.621Z,78.80
2019-04-14T14:06:46.717Z,78.60
2019-04-14T14:12:29.421Z,78.80
2019-04-14T14:18:06.981Z,78.10
2019-04-14T14:23:29.322Z,78.20
2019-04-14T14:28:43.678Z,76.40
2019-04-14T14:33:59.119Z,76.70
2019-04-14T14:39:16.173Z,75.20
2019-04-14T14:44:38.923Z,74.00
2019-04-14T14:50:12.836Z,73.30
2019-04-14T14:55:27.496Z,72.60
2019-04-14T15:00:42.051Z,72.50
2019-04-14T15:05:56.416Z,73.40
2019-04-14T15:11:11.172Z,73.40
2019-04-14T15:16:25.956Z,73.10
2019-04-14T15:21:40.597Z,72.10
2019-04-14T15:26:55.537Z,71.10
2019-04-14T16:08:55.593Z,67.70
2019-04-14T16:14:31.975Z,67.60
2019-04-14T16:19:50.059Z,67.00
2019-04-14T16:25:05.115Z,66.50
2019-04-14T16:30:48.292Z,66.60
2019-04-14T16:36:02.799Z,66.00
2019-04-14T16:41:20.077Z,65.40
2019-04-14T16:46:33.450Z,65.10
2019-04-14T16:51:59.133Z,65.00
2019-04-14T16:57:32.705Z,65.20
2019-04-14T17:02:50.045Z,65.00
2019-04-14T17:08:03.612Z,64.80
2019-04-14T17:13:18.310Z,64.70
2019-04-14T17:19:10.696Z,64.50
2019-04-14T17:24:43.337Z,64.40
2019-04-14T17:30:21.736Z,64.10
2019-04-14T17:35:54.153Z,63.90
2019-04-14T17:41:20.243Z,64.00
2019-04-14T17:46:52.500Z,64.10
2019-04-14T17:52:25.551Z,64.30
2019-04-14T17:57:59.192Z,64.20
2019-04-14T18:03:33.222Z,64.30
2019-04-14T18:09:21.464Z,64.20
2019-04-14T18:14:42.530Z,63.80
2019-04-14T18:20:01.610Z,64.00
2019-04-14T18:31:04.863Z,63.80
2019-04-14T18:50:07.203Z,63.60
2019-04-14T18:55:32.816Z,63.50
2019-04-14T19:01:01.108Z,63.30
2019-04-14T19:06:15.721Z,63.70
2019-04-14T19:11:47.501Z,63.70
2019-04-14T19:17:06.305Z,63.60
2019-04-14T19:22:20.894Z,63.70
2019-04-14T19:27:35.478Z,63.60
2019-04-14T19:32:57.567Z,63.50
2019-04-14T19:38:12.326Z,63.50
2019-04-14T19:43:26.813Z,63.50
2019-04-14T19:48:43.656Z,63.50
2019-04-14T19:53:57.875Z,63.50
2019-04-14T19:59:12.401Z,63.40
2019-04-14T20:04:27.086Z,63.30
2019-04-14T20:09:41.668Z,63.30
2019-04-14T20:14:57.381Z,63.30
2019-04-14T20:20:27.479Z,63.20
2019-04-14T20:26:19.380Z,63.30
2019-04-14T20:31:55.942Z,63.40
2019-04-14T20:37:12.084Z,63.40
2019-04-14T20:42:28.980Z,63.40
2019-04-14T20:47:44.257Z,64.10
2019-04-14T20:52:58.624Z,63.50
2019-04-14T20:58:13.349Z,63.40
2019-04-14T21:03:40.988Z,63.50
2019-04-14T21:09:19.095Z,63.60
2019-04-14T21:14:56.221Z,63.60
2019-04-14T21:20:18.920Z,63.70
2019-04-14T21:26:01.203Z,63.80
2019-04-14T21:31:34.673Z,63.90
2019-04-14T21:37:06.532Z,64.10
2019-04-14T21:42:21.586Z,64.10
2019-04-14T21:47:36.020Z,64.40
2019-04-14T21:52:50.693Z,64.50
2019-04-14T21:58:37.012Z,64.80
2019-04-14T22:04:14.812Z,65.00
2019-04-14T22:09:36.149Z,65.20
2019-04-14T22:14:50.732Z,65.40
2019-04-14T22:20:05.715Z,65.70
2019-04-14T22:25:20.262Z,66.00
2019-04-14T22:30:34.784Z,66.20
2019-04-14T22:35:49.298Z,66.10
2019-04-14T22:41:05.420Z,66.30
2019-04-14T22:46:20.047Z,66.10
2019-04-14T22:51:34.930Z,66.50
2019-04-14T22:56:49.532Z,66.50
2019-04-14T23:02:10.201Z,66.50
2019-04-14T23:07:49.662Z,66.30
2019-04-14T23:13:32.888Z,66.70
2019-04-14T23:18:59.664Z,66.80
2019-04-14T23:24:20.094Z,66.90
2019-04-14T23:29:34.732Z,67.10
2019-04-14T23:34:51.880Z,67.10
2019-04-14T23:40:06.438Z,67.40
2019-04-14T23:45:21.041Z,67.20
2019-04-14T23:50:35.298Z,67.50
2019-04-14T23:55:50.982Z,67.50
